Time;durP1;ratioP1;P1;durP2;ratioP2;P2;SDS_P1;SDS_P2;PMS_P1;PMS_P2;Temp;Humidity;BMP_temperature;BMP_pressure;BME280_temperature;BME280_humidity;BME280_pressure;Samples;Min_cycle;Max_cycle;Signal;HPM_P1;HPM_P2
2023/10/25 00:02:09;;;;;;;12.38;8.55;;;9.20;99.90;;;;;;4958329;28;20504;-76
2023/10/25 00:04:35;;;;;;;10.05;7.85;;;9.20;99.90;;;;;;4952672;28;20512;-76
2023/10/25 00:07:01;;;;;;;10.38;7.70;;;9.20;99.90;;;;;;4935763;28;20409;-76
2023/10/25 00:09:26;;;;;;;15.90;8.07;;;9.20;99.90;;;;;;4952036;28;20039;-76
2023/10/25 00:11:53;;;;;;;15.50;8.50;;;9.20;99.90;;;;;;4952202;28;20070;-76
2023/10/25 00:14:19;;;;;;;14.65;8.63;;;9.10;99.90;;;;;;4952952;28;20504;-76
2023/10/25 00:16:45;;;;;;;11.20;7.90;;;9.10;99.90;;;;;;4955160;28;20066;-76
2023/10/25 00:19:11;;;;;;;10.23;8.05;;;9.10;99.90;;;;;;4966014;28;20455;-76
2023/10/25 00:21:37;;;;;;;13.88;8.20;;;9.10;99.90;;;;;;4969426;28;20607;-75
2023/10/25 00:24:02;;;;;;;13.05;8.48;;;9.10;99.90;;;;;;4953061;28;20038;-75
2023/10/25 00:26:28;;;;;;;16.52;9.18;;;9.00;99.90;;;;;;4971131;28;20045;-76
2023/10/25 00:28:54;;;;;;;16.95;8.52;;;9.00;99.90;;;;;;4954498;28;20058;-76
2023/10/25 00:31:20;;;;;;;17.35;9.63;;;9.00;99.90;;;;;;4965623;28;20054;-76
2023/10/25 00:33:45;;;;;;;13.13;8.60;;;8.90;99.90;;;;;;4952193;28;20147;-76
2023/10/25 00:36:11;;;;;;;15.23;8.88;;;8.90;99.90;;;;;;4965916;28;20050;-76
2023/10/25 00:38:37;;;;;;;16.70;9.80;;;8.90;99.90;;;;;;4953784;28;20570;-76
2023/10/25 00:41:02;;;;;;;12.73;9.75;;;8.90;99.90;;;;;;4952646;28;20117;-76
2023/10/25 00:43:28;;;;;;;11.55;9.07;;;8.80;99.90;;;;;;4968246;28;20073;-76
2023/10/25 00:46:11;;;;;;;15.95;9.10;;;8.80;99.90;;;;;;4952215;28;20046;-76
2023/10/25 00:48:37;;;;;;;;;;;8.80;99.90;;;;;;4952101;28;20039;-75
2023/10/25 00:51:03;;;;;;;16.58;9.38;;;8.80;99.90;;;;;;4969182;28;19925;-76
2023/10/25 00:53:32;;;;;;;13.95;8.95;;;8.70;99.90;;;;;;4967858;28;20455;-76
2023/10/25 00:56:00;;;;;;;13.23;9.32;;;8.80;99.90;;;;;;4968039;28;20495;-76
2023/10/25 00:58:26;;;;;;;19.48;9.70;;;8.70;99.90;;;;;;4968048;28;20492;-76
2023/10/25 01:00:56;;;;;;;16.20;9.48;;;8.70;99.90;;;;;;4951665;28;20114;-76
2023/10/25 01:03:22;;;;;;;13.45;8.95;;;8.70;99.90;;;;;;4938197;28;20043;-76
2023/10/25 01:05:49;;;;;;;15.90;9.57;;;8.70;99.90;;;;;;4955632;28;20523;-76
2023/10/25 01:08:19;;;;;;;15.48;9.55;;;8.70;99.90;;;;;;4957161;28;20043;-76
2023/10/25 01:10:49;;;;;;;15.88;9.55;;;8.70;99.90;;;;;;4969651;28;20113;-76
2023/10/25 01:13:15;;;;;;;18.92;9.43;;;8.70;99.90;;;;;;4944665;28;20063;-76
2023/10/25 01:15:40;;;;;;;16.52;10.05;;;8.60;99.90;;;;;;4956023;28;20097;-76
2023/10/25 01:18:06;;;;;;;13.73;9.52;;;8.60;99.90;;;;;;4971011;28;20130;-76
2023/10/25 01:20:33;;;;;;;17.75;8.77;;;8.60;99.90;;;;;;4987745;28;20522;-76
2023/10/25 01:22:58;;;;;;;15.93;10.32;;;8.60;99.90;;;;;;4971233;28;20034;-76
2023/10/25 01:25:24;;;;;;;13.75;9.43;;;8.60;99.90;;;;;;4966465;28;20441;-76
2023/10/25 01:27:51;;;;;;;19.17;9.93;;;8.60;99.90;;;;;;4955099;28;20673;-76
2023/10/25 01:30:17;;;;;;;14.55;9.90;;;8.60;99.90;;;;;;4956955;28;20101;-76
2023/10/25 01:32:43;;;;;;;14.75;9.52;;;8.50;99.90;;;;;;4969461;28;20381;-76
2023/10/25 01:35:10;;;;;;;16.42;9.95;;;8.50;99.90;;;;;;4952650;28;20097;-76
2023/10/25 01:37:36;;;;;;;15.75;9.85;;;8.60;99.90;;;;;;4955742;28;20448;-76
2023/10/25 01:40:03;;;;;;;16.40;9.35;;;8.50;99.90;;;;;;4970915;28;20078;-76
2023/10/25 01:42:29;;;;;;;19.02;9.40;;;8.50;99.90;;;;;;4955843;28;20037;-76
2023/10/25 01:44:55;;;;;;;15.02;9.80;;;8.50;99.90;;;;;;4948001;28;20070;-75
2023/10/25 01:47:20;;;;;;;17.40;10.05;;;8.50;99.90;;;;;;4954635;28;20047;-76
2023/10/25 01:49:46;;;;;;;17.17;9.73;;;8.40;99.90;;;;;;4970396;28;20043;-75
2023/10/25 01:52:12;;;;;;;16.00;9.95;;;8.40;99.90;;;;;;4954814;28;20462;-76
2023/10/25 01:54:38;;;;;;;13.93;9.63;;;8.40;99.90;;;;;;4951623;28;20050;-76
2023/10/25 01:57:04;;;;;;;16.60;9.90;;;8.40;99.90;;;;;;4954394;28;20031;-76
2023/10/25 01:59:30;;;;;;;14.30;9.98;;;8.40;99.90;;;;;;4954954;28;20510;-76
2023/10/25 02:01:55;;;;;;;19.88;10.50;;;8.40;99.90;;;;;;4954492;28;20042;-76
2023/10/25 02:04:21;;;;;;;13.13;9.95;;;8.40;99.90;;;;;;4941710;28;20515;-76
2023/10/25 02:06:51;;;;;;;16.27;10.70;;;8.50;99.90;;;;;;4969909;28;20045;-76
2023/10/25 02:09:17;;;;;;;18.30;10.80;;;8.40;99.90;;;;;;4955896;28;20038;-76
2023/10/25 02:11:43;;;;;;;15.23;9.90;;;8.40;99.90;;;;;;4967997;28;20093;-76
2023/10/25 02:14:09;;;;;;;13.90;10.10;;;8.40;99.90;;;;;;4938905;28;20137;-75
2023/10/25 02:16:34;;;;;;;16.25;9.70;;;8.40;99.90;;;;;;4954127;28;20035;-76
2023/10/25 02:19:00;;;;;;;15.25;10.20;;;8.40;99.90;;;;;;4954021;28;20046;-76
2023/10/25 02:21:26;;;;;;;15.77;9.98;;;8.40;99.90;;;;;;4970249;28;20038;-76
2023/10/25 02:23:55;;;;;;;18.00;10.57;;;8.40;99.90;;;;;;4963813;28;20038;-75
2023/10/25 02:26:21;;;;;;;14.05;9.65;;;8.40;99.90;;;;;;4966741;28;20422;-76
2023/10/25 02:28:47;;;;;;;13.50;9.77;;;8.40;99.90;;;;;;4953870;28;20035;-76
2023/10/25 02:31:12;;;;;;;14.02;10.07;;;8.40;99.90;;;;;;4970422;28;20042;-76
2023/10/25 02:33:38;;;;;;;14.82;9.63;;;8.40;99.90;;;;;;4942949;28;20128;-76
2023/10/25 02:36:04;;;;;;;15.15;10.15;;;8.40;99.90;;;;;;4970137;28;20043;-76
2023/10/25 02:38:30;;;;;;;15.38;10.13;;;8.30;99.90;;;;;;4953835;28;20121;-76
2023/10/25 02:40:56;;;;;;;25.85;10.23;;;8.30;99.90;;;;;;4954956;28;20039;-76
2023/10/25 02:43:22;;;;;;;14.23;10.93;;;8.30;99.90;;;;;;4959392;28;20031;-76
2023/10/25 02:45:48;;;;;;;13.20;9.75;;;8.40;99.90;;;;;;4937925;28;20117;-76
2023/10/25 02:48:13;;;;;;;20.15;10.35;;;8.40;99.90;;;;;;4953821;28;20038;-76
2023/10/25 02:50:40;;;;;;;15.98;9.88;;;8.40;99.90;;;;;;4969309;28;20070;-76
2023/10/25 02:53:06;;;;;;;13.73;10.20;;;8.40;99.90;;;;;;4968055;28;20121;-76
2023/10/25 02:55:35;;;;;;;15.50;10.15;;;8.40;99.90;;;;;;4937199;28;20133;-76
2023/10/25 02:58:01;;;;;;;13.20;10.15;;;8.40;99.90;;;;;;4969445;28;20612;-76
2023/10/25 03:00:27;;;;;;;17.77;10.45;;;8.40;99.90;;;;;;4960240;28;20039;-76
2023/10/25 03:02:53;;;;;;;15.57;10.13;;;8.40;99.90;;;;;;4937625;28;20045;-76
2023/10/25 03:05:18;;;;;;;17.95;10.32;;;8.40;99.90;;;;;;4968667;28;20481;-76
2023/10/25 03:07:44;;;;;;;10.85;5.93;;;8.30;99.90;;;;;;4951755;28;20042;-76
2023/10/25 03:10:10;;;;;;;14.30;9.98;;;8.30;99.90;;;;;;4953317;28;20050;-76
2023/10/25 03:12:35;;;;;;;11.70;9.52;;;8.30;99.90;;;;;;4953135;28;20061;-76
2023/10/25 03:15:01;;;;;;;17.80;10.90;;;8.30;99.90;;;;;;4954508;28;20497;-76
2023/10/25 03:17:28;;;;;;;18.85;10.32;;;8.30;99.90;;;;;;4953665;28;20109;-76
2023/10/25 03:19:54;;;;;;;15.20;10.93;;;8.30;99.90;;;;;;4967358;28;20420;-76
2023/10/25 03:22:19;;;;;;;15.23;9.52;;;8.30;99.90;;;;;;4961185;28;20038;-76
2023/10/25 03:24:45;;;;;;;16.42;10.70;;;8.30;99.90;;;;;;4968541;28;20034;-76
2023/10/25 03:27:11;;;;;;;15.63;10.13;;;8.20;99.90;;;;;;4953811;28;20039;-76
2023/10/25 03:29:37;;;;;;;14.35;9.73;;;8.20;99.90;;;;;;4953318;28;20130;-76
2023/10/25 03:32:03;;;;;;;20.70;10.93;;;8.20;99.90;;;;;;4969582;28;20054;-76
2023/10/25 03:34:29;;;;;;;16.08;11.00;;;8.20;99.90;;;;;;4978171;28;20074;-76
2023/10/25 03:36:55;;;;;;;15.73;10.48;;;8.20;99.90;;;;;;4952709;28;20121;-76
2023/10/25 03:39:21;;;;;;;15.80;11.20;;;8.20;99.90;;;;;;4969325;28;20070;-76
2023/10/25 03:41:47;;;;;;;15.02;11.20;;;8.10;99.90;;;;;;4966868;28;20070;-76
2023/10/25 03:44:13;;;;;;;16.83;11.07;;;8.10;99.90;;;;;;4959486;28;20126;-76
2023/10/25 03:46:39;;;;;;;25.02;13.15;;;8.10;99.90;;;;;;4965393;28;20162;-75
2023/10/25 03:49:04;;;;;;;18.73;12.20;;;8.10;99.90;;;;;;4969501;28;20046;-76
2023/10/25 03:51:31;;;;;;;18.52;11.65;;;8.10;99.90;;;;;;4953131;28;20039;-76
2023/10/25 03:53:57;;;;;;;16.85;11.85;;;8.10;99.90;;;;;;4958352;28;20065;-76
2023/10/25 03:56:23;;;;;;;19.38;11.80;;;8.00;99.90;;;;;;4953014;28;20507;-76
2023/10/25 03:58:48;;;;;;;19.10;12.63;;;7.90;99.90;;;;;;4963995;28;20078;-76
2023/10/25 04:01:14;;;;;;;17.05;12.43;;;7.90;99.90;;;;;;4972802;28;20488;-76
2023/10/25 04:03:40;;;;;;;14.73;12.90;;;7.80;99.90;;;;;;4953221;28;20051;-76
2023/10/25 04:06:07;;;;;;;19.85;12.15;;;7.80;99.90;;;;;;4981901;28;20043;-76
2023/10/25 04:08:33;;;;;;;20.65;13.02;;;7.80;99.90;;;;;;4969145;28;20046;-76
2023/10/25 04:10:59;;;;;;;16.73;13.00;;;7.70;99.90;;;;;;4958555;28;20043;-76
2023/10/25 04:13:25;;;;;;;19.73;13.13;;;7.70;99.90;;;;;;4968117;28;20058;-76
2023/10/25 04:15:59;;;;;;;22.20;12.52;;;7.70;99.90;;;;;;4960765;28;20412;-76
2023/10/25 04:18:26;;;;;;;19.35;12.95;;;7.60;99.90;;;;;;4967046;28;20033;-76
2023/10/25 04:20:52;;;;;;;18.92;12.90;;;7.60;99.90;;;;;;4951041;28;20082;-76
2023/10/25 04:23:18;;;;;;;20.80;12.35;;;7.60;99.90;;;;;;4968593;28;20511;-76
2023/10/25 04:25:44;;;;;;;18.80;12.80;;;7.50;99.90;;;;;;4937234;28;20046;-76
2023/10/25 04:28:10;;;;;;;22.77;12.60;;;7.50;99.90;;;;;;4962457;28;20038;-76
2023/10/25 04:30:36;;;;;;;18.65;12.15;;;7.50;99.90;;;;;;4952824;28;21604;-76
2023/10/25 04:33:02;;;;;;;15.82;12.38;;;7.50;99.90;;;;;;4968648;28;20030;-76
2023/10/25 04:35:28;;;;;;;20.60;13.63;;;7.40;99.90;;;;;;4970572;28;20065;-76
2023/10/25 04:37:57;;;;;;;20.20;13.90;;;7.40;99.90;;;;;;4972099;28;20043;-76
2023/10/25 04:40:22;;;;;;;21.52;13.10;;;7.40;99.90;;;;;;4972396;28;20130;-76
2023/10/25 04:42:53;;;;;;;22.75;14.25;;;7.40;99.90;;;;;;4971902;28;20133;-76
2023/10/25 04:45:19;;;;;;;26.45;14.23;;;7.40;99.90;;;;;;4957131;28;20049;-76
2023/10/25 04:47:45;;;;;;;20.40;13.10;;;7.40;99.90;;;;;;4970217;28;20050;-76
2023/10/25 04:50:11;;;;;;;17.95;12.50;;;7.30;99.90;;;;;;4972464;28;20041;-76
2023/10/25 04:52:37;;;;;;;16.95;12.23;;;7.30;99.90;;;;;;4955864;28;20488;-76
2023/10/25 04:55:03;;;;;;;18.75;12.52;;;7.30;99.90;;;;;;4971351;28;20078;-76
2023/10/25 04:57:28;;;;;;;24.95;13.05;;;7.30;99.90;;;;;;4955633;28;20039;-75
2023/10/25 04:59:54;;;;;;;22.17;12.85;;;7.30;99.90;;;;;;4922948;28;20192;-75
2023/10/25 05:02:20;;;;;;;19.20;12.75;;;7.20;99.90;;;;;;4956305;28;20031;-75
2023/10/25 05:04:45;;;;;;;19.05;12.63;;;7.30;99.90;;;;;;4968469;28;20035;-75
2023/10/25 05:07:11;;;;;;;22.42;12.88;;;7.30;99.90;;;;;;4972191;28;20042;-75
2023/10/25 05:09:37;;;;;;;19.05;12.75;;;7.30;99.90;;;;;;4955490;28;20400;-75
2023/10/25 05:12:07;;;;;;;16.73;12.68;;;7.20;99.90;;;;;;4970782;28;20527;-75
2023/10/25 05:14:34;;;;;;;22.60;13.15;;;7.20;99.90;;;;;;4972149;28;20049;-75
2023/10/25 05:17:01;;;;;;;20.35;13.15;;;7.20;99.90;;;;;;4955819;28;20458;-75
2023/10/25 05:19:27;;;;;;;24.98;12.80;;;7.20;99.90;;;;;;4952264;28;20412;-75
2023/10/25 05:21:54;;;;;;;24.35;14.50;;;7.20;99.90;;;;;;4953345;28;20042;-75
2023/10/25 05:24:21;;;;;;;21.23;12.70;;;7.20;99.90;;;;;;4968390;28;20070;-75
2023/10/25 05:26:47;;;;;;;24.42;14.65;;;7.10;99.90;;;;;;4969915;28;20047;-75
2023/10/25 05:29:13;;;;;;;24.33;14.00;;;7.10;99.90;;;;;;4975935;28;20069;-74
2023/10/25 05:31:45;;;;;;;24.58;14.32;;;7.10;99.90;;;;;;4953087;28;20034;-75
2023/10/25 05:34:11;;;;;;;20.90;13.82;;;7.00;99.90;;;;;;4960396;28;20074;-76
2023/10/25 05:36:38;;;;;;;20.60;12.43;;;7.00;99.90;;;;;;4963725;28;20053;-75
2023/10/25 05:39:05;;;;;;;19.67;12.45;;;7.00;99.90;;;;;;4965293;28;20042;-75
2023/10/25 05:41:37;;;;;;;18.88;12.85;;;6.90;99.90;;;;;;4964568;28;20045;-75
2023/10/25 05:44:06;;;;;;;20.00;13.15;;;6.90;99.90;;;;;;4969673;28;20042;-75
2023/10/25 05:46:32;;;;;;;20.75;13.15;;;6.90;99.90;;;;;;4938466;28;20102;-75
2023/10/25 05:48:58;;;;;;;13.50;6.32;;;6.80;99.90;;;;;;4965203;28;20042;-75
2023/10/25 05:51:24;;;;;;;20.45;12.98;;;6.80;99.90;;;;;;4971291;28;20047;-76
2023/10/25 05:53:50;;;;;;;22.38;13.70;;;6.70;99.90;;;;;;4952051;28;20046;-76
2023/10/25 05:56:17;;;;;;;25.70;13.82;;;6.70;99.90;;;;;;4950065;28;20053;-75
2023/10/25 05:58:45;;;;;;;24.45;14.30;;;6.70;99.90;;;;;;4937666;28;20048;-75
2023/10/25 06:01:11;;;;;;;21.30;14.13;;;6.70;99.90;;;;;;4943089;28;20146;-76
2023/10/25 06:03:40;;;;;;;23.67;15.20;;;6.60;99.90;;;;;;4951907;28;20066;-75
2023/10/25 06:06:11;;;;;;;26.27;15.90;;;6.60;99.90;;;;;;4969718;28;20050;-75
2023/10/25 06:08:37;;;;;;;25.47;15.83;;;6.60;99.90;;;;;;4951745;28;20069;-75
2023/10/25 06:11:04;;;;;;;22.50;14.55;;;6.60;99.90;;;;;;4968159;28;20043;-75
2023/10/25 06:13:30;;;;;;;24.88;15.93;;;6.60;99.90;;;;;;4953777;28;20065;-75
2023/10/25 06:15:56;;;;;;;24.45;15.13;;;6.60;99.90;;;;;;4963560;28;20043;-75
2023/10/25 06:18:22;;;;;;;22.45;15.77;;;6.60;99.90;;;;;;4966634;28;20039;-75
2023/10/25 06:20:48;;;;;;;22.42;15.32;;;6.60;99.90;;;;;;4969121;28;20549;-75
2023/10/25 06:23:14;;;;;;;25.55;16.05;;;6.70;99.90;;;;;;4952732;28;20058;-75
2023/10/25 06:25:39;;;;;;;28.70;16.35;;;6.70;99.90;;;;;;4955522;28;20041;-75
2023/10/25 06:28:07;;;;;;;22.88;14.55;;;6.70;99.90;;;;;;4954335;28;20043;-75
2023/10/25 06:30:33;;;;;;;20.05;6.90;;;6.70;99.90;;;;;;4953911;28;20045;-75
2023/10/25 06:32:59;;;;;;;22.65;15.80;;;6.70;99.90;;;;;;4970089;28;20122;-75
2023/10/25 06:35:25;;;;;;;30.63;15.75;;;6.70;99.90;;;;;;4953673;28;20043;-76
2023/10/25 06:37:51;;;;;;;21.17;14.27;;;6.70;99.90;;;;;;4954137;28;20046;-75
2023/10/25 06:40:17;;;;;;;21.58;15.35;;;6.70;99.90;;;;;;4969848;28;20089;-76
2023/10/25 06:42:43;;;;;;;12.90;6.85;;;6.80;99.90;;;;;;4956384;28;20109;-75
2023/10/25 06:45:15;;;;;;;27.73;17.33;;;6.80;99.90;;;;;;4970151;28;20034;-75
2023/10/25 06:47:44;;;;;;;31.92;18.35;;;6.80;99.90;;;;;;4970425;28;20035;-75
2023/10/25 06:50:12;;;;;;;25.35;16.33;;;6.80;99.90;;;;;;4969912;28;20043;-75
2023/10/25 06:52:38;;;;;;;28.13;16.85;;;6.90;99.90;;;;;;4954091;28;20043;-75
2023/10/25 06:55:04;;;;;;;15.20;7.10;;;6.80;99.90;;;;;;4954140;28;20030;-75
2023/10/25 06:57:31;;;;;;;15.38;8.07;;;6.90;99.90;;;;;;4969860;28;20046;-75
2023/10/25 06:59:56;;;;;;;12.75;8.00;;;6.90;99.90;;;;;;4953220;28;20042;-75
2023/10/25 07:02:44;;;;;;;22.13;8.02;;;6.90;99.90;;;;;;4953388;28;20066;-75
2023/10/25 07:05:12;;;;;;;20.58;8.63;;;6.90;99.90;;;;;;4969853;28;20134;-75
2023/10/25 07:07:39;;;;;;;29.88;18.95;;;6.90;99.90;;;;;;4969934;28;20531;-75
2023/10/25 07:10:08;;;;;;;33.30;20.80;;;7.00;99.90;;;;;;4937437;28;20085;-75
2023/10/25 07:12:33;;;;;;;40.13;22.92;;;7.00;99.90;;;;;;4969066;28;20089;-75
2023/10/25 07:14:59;;;;;;;35.00;22.65;;;7.00;99.90;;;;;;4969371;28;20082;-75
2023/10/25 07:17:27;;;;;;;34.97;20.15;;;7.00;99.90;;;;;;4953803;28;20043;-76
2023/10/25 07:19:53;;;;;;;15.77;9.30;;;7.00;99.90;;;;;;4954749;28;20039;-75
2023/10/25 07:22:19;;;;;;;28.80;19.92;;;7.10;99.90;;;;;;4952053;28;20050;-74
2023/10/25 07:24:45;;;;;;;30.65;20.10;;;7.10;99.90;;;;;;4950623;28;20035;-75
2023/10/25 07:27:11;;;;;;;30.65;21.83;;;7.20;99.90;;;;;;4951518;28;20038;-75
2023/10/25 07:29:37;;;;;;;36.17;21.27;;;7.40;99.90;;;;;;4954034;28;20447;-76
2023/10/25 07:32:03;;;;;;;30.65;21.88;;;7.30;99.90;;;;;;4967190;28;20046;-76
2023/10/25 07:34:29;;;;;;;35.13;21.40;;;7.30;99.90;;;;;;4950837;28;20084;-76
2023/10/25 07:36:55;;;;;;;28.77;20.92;;;7.40;99.90;;;;;;4938766;28;20532;-75
2023/10/25 07:39:21;;;;;;;29.80;20.38;;;7.40;99.90;;;;;;4936153;28;20089;-76
2023/10/25 07:41:47;;;;;;;25.58;19.20;;;7.50;99.90;;;;;;4964805;28;20034;-76
2023/10/25 07:44:13;;;;;;;29.58;19.15;;;7.50;99.90;;;;;;4953085;28;20498;-76
2023/10/25 07:46:39;;;;;;;25.98;19.30;;;7.60;99.90;;;;;;4968778;28;20049;-77
2023/10/25 07:49:04;;;;;;;22.33;18.42;;;7.60;99.90;;;;;;4953157;28;20061;-76
2023/10/25 07:51:30;;;;;;;26.23;19.73;;;7.60;99.90;;;;;;4937211;28;20035;-76
2023/10/25 07:53:56;;;;;;;17.35;8.70;;;7.70;99.90;;;;;;4968718;28;20054;-76
2023/10/25 07:56:23;;;;;;;26.00;17.67;;;7.70;99.90;;;;;;4969176;28;20507;-75
2023/10/25 07:58:48;;;;;;;27.50;17.25;;;7.80;99.90;;;;;;4968710;28;20437;-76
2023/10/25 08:01:14;;;;;;;24.90;17.35;;;7.80;99.90;;;;;;4967380;28;20035;-76
2023/10/25 08:03:40;;;;;;;22.83;17.25;;;7.80;99.90;;;;;;4968898;28;20045;-75
2023/10/25 08:06:06;;;;;;;20.90;16.85;;;7.80;99.90;;;;;;4953091;28;20051;-75
2023/10/25 08:08:34;;;;;;;22.77;16.25;;;7.90;99.90;;;;;;4954263;28;20039;-76
2023/10/25 08:11:05;;;;;;;20.92;16.90;;;8.00;99.90;;;;;;4955925;28;20039;-76
2023/10/25 08:13:32;;;;;;;24.42;16.27;;;8.00;99.90;;;;;;4973551;28;20101;-76
2023/10/25 08:15:59;;;;;;;22.50;17.13;;;8.00;99.90;;;;;;4957876;28;20078;-76
2023/10/25 08:18:29;;;;;;;24.08;16.02;;;8.10;99.90;;;;;;4957566;28;20631;-76
2023/10/25 08:20:56;;;;;;;22.25;15.02;;;8.10;99.90;;;;;;4973235;28;20444;-76
2023/10/25 08:23:22;;;;;;;23.27;16.02;;;8.20;99.90;;;;;;4973619;28;20035;-76
2023/10/25 08:25:48;;;;;;;20.92;16.10;;;8.20;99.90;;;;;;4973468;28;21196;-76
2023/10/25 08:28:14;;;;;;;22.17;15.85;;;8.30;99.90;;;;;;4938968;28;20039;-76
2023/10/25 08:30:40;;;;;;;20.52;15.82;;;8.30;99.90;;;;;;4961671;28;20043;-76
2023/10/25 08:33:06;;;;;;;21.42;16.00;;;8.40;99.90;;;;;;4955339;28;20066;-76
2023/10/25 08:35:31;;;;;;;19.38;15.05;;;8.40;99.90;;;;;;4939870;28;20066;-76
2023/10/25 08:37:57;;;;;;;20.75;16.23;;;8.40;99.90;;;;;;4959971;28;20066;-76
2023/10/25 08:40:26;;;;;;;19.23;15.73;;;8.50;99.90;;;;;;4972044;28;20047;-75
2023/10/25 08:42:57;;;;;;;22.30;16.00;;;8.60;99.90;;;;;;4972048;28;20035;-76
2023/10/25 08:45:23;;;;;;;21.73;15.13;;;8.60;99.90;;;;;;4972578;28;20039;-76
2023/10/25 08:47:50;;;;;;;22.85;16.30;;;8.70;99.90;;;;;;4972340;28;20428;-76
2023/10/25 08:50:19;;;;;;;27.30;16.20;;;8.70;99.90;;;;;;4940865;28;20085;-76
2023/10/25 08:52:50;;;;;;;21.98;15.35;;;8.80;99.90;;;;;;4955802;28;20039;-76
2023/10/25 08:55:21;;;;;;;20.50;14.35;;;8.80;99.90;;;;;;4955917;28;20058;-76
2023/10/25 08:57:54;;;;;;;18.52;15.52;;;8.90;99.90;;;;;;4956057;28;20101;-76
2023/10/25 09:00:19;;;;;;;;;;;8.90;99.90;;;;;;4940877;28;20272;-76
2023/10/25 09:02:46;;;;;;;17.75;14.00;;;9.00;99.90;;;;;;4972233;28;19917;-76
2023/10/25 09:05:12;;;;;;;17.13;14.02;;;9.00;99.90;;;;;;4939135;28;20412;-76
2023/10/25 09:07:38;;;;;;;21.00;13.75;;;9.10;99.90;;;;;;4965031;28;20075;-76
2023/10/25 09:10:10;;;;;;;19.15;13.32;;;9.20;99.90;;;;;;4937256;28;20189;-77
2023/10/25 09:12:36;;;;;;;21.50;14.32;;;9.20;99.90;;;;;;4971458;28;20552;-77
2023/10/25 09:15:03;;;;;;;16.33;13.00;;;9.30;99.90;;;;;;4971702;28;20047;-76
2023/10/25 09:17:31;;;;;;;16.42;12.02;;;9.40;99.90;;;;;;4942435;28;20078;-77
2023/10/25 09:19:56;;;;;;;15.57;11.35;;;9.50;99.90;;;;;;4950228;28;20489;-77
2023/10/25 09:22:27;;;;;;;13.30;11.70;;;9.60;99.90;;;;;;4945330;28;20101;-76
2023/10/25 09:25:01;;;;;;;12.88;9.98;;;9.80;99.90;;;;;;4951379;28;20508;-76
2023/10/25 09:27:28;;;;;;;13.80;10.90;;;10.00;99.90;;;;;;4964068;28;20054;-76
2023/10/25 09:30:09;;;;;;;14.85;10.50;;;10.10;99.90;;;;;;4944125;28;20047;-76
2023/10/25 09:32:35;;;;;;;17.37;9.93;;;10.30;99.90;;;;;;4955562;28;20042;-76
2023/10/25 09:35:02;;;;;;;10.93;8.68;;;10.40;99.90;;;;;;4962665;28;20150;-75
2023/10/25 09:37:28;;;;;;;12.25;8.70;;;10.50;99.90;;;;;;4962926;28;20408;-76
2023/10/25 09:39:54;;;;;;;13.85;8.70;;;10.60;99.90;;;;;;4949871;28;20031;-74
2023/10/25 09:42:25;;;;;;;12.05;8.73;;;10.60;99.90;;;;;;4937077;28;20451;-74
2023/10/25 09:45:01;;;;;;;9.80;7.82;;;10.60;99.90;;;;;;4971118;28;20050;-73
2023/10/25 09:47:29;;;;;;;13.13;7.97;;;10.70;99.90;;;;;;4970531;28;20042;-74
2023/10/25 09:50:05;;;;;;;10.15;7.95;;;10.70;99.90;;;;;;4971310;28;20074;-74
2023/10/25 09:52:35;;;;;;;14.23;8.70;;;10.70;99.90;;;;;;4967915;28;20043;-73
2023/10/25 09:55:14;;;;;;;16.55;6.88;;;10.70;99.90;;;;;;4982231;28;20408;-73
2023/10/25 09:57:40;;;;;;;11.40;8.10;;;10.70;99.90;;;;;;4949649;28;20053;-73
2023/10/25 10:00:08;;;;;;;12.43;6.75;;;10.80;99.90;;;;;;4965054;28;20043;-73
2023/10/25 10:02:44;;;;;;;12.85;8.15;;;10.90;99.90;;;;;;4965236;28;20038;-74
2023/10/25 10:05:18;;;;;;;11.93;7.70;;;10.90;99.90;;;;;;4968645;28;20038;-73
2023/10/25 10:08:07;;;;;;;13.98;7.80;;;11.00;99.90;;;;;;4966440;28;20598;-73
2023/10/25 10:10:55;;;;;;;10.98;7.10;;;11.00;99.90;;;;;;4970667;28;20122;-73
2023/10/25 10:13:22;;;;;;;8.57;6.72;;;10.90;99.90;;;;;;4967914;28;20919;-72
2023/10/25 10:16:05;;;;;;;12.10;7.32;;;11.00;99.90;;;;;;4953880;28;20042;-73
2023/10/25 10:18:36;;;;;;;12.00;8.13;;;10.90;99.90;;;;;;4934212;28;20109;-73
2023/10/25 10:21:10;;;;;;;13.20;7.50;;;10.90;99.90;;;;;;4950795;28;20113;-73
2023/10/25 10:23:41;;;;;;;11.05;7.03;;;10.90;99.90;;;;;;4934839;28;20580;-73
2023/10/25 10:26:11;;;;;;;14.05;7.70;;;10.90;99.90;;;;;;4950703;28;20552;-75
2023/10/25 10:28:44;;;;;;;9.60;7.65;;;10.90;99.90;;;;;;4968768;28;20130;-75
2023/10/25 10:31:11;;;;;;;11.80;7.32;;;10.90;99.90;;;;;;4950818;28;20619;-75
2023/10/25 10:33:45;;;;;;;13.10;6.90;;;10.90;99.90;;;;;;4962500;28;20122;-76
2023/10/25 10:36:22;;;;;;;11.57;6.90;;;10.90;99.90;;;;;;4968419;28;20121;-75
2023/10/25 10:39:11;;;;;;;9.30;6.95;;;10.90;99.90;;;;;;4968300;28;20118;-76
2023/10/25 10:41:39;;;;;;;13.27;8.25;;;11.00;99.90;;;;;;4952800;28;20538;-74
2023/10/25 10:44:06;;;;;;;11.10;7.55;;;11.00;99.90;;;;;;4952118;28;20416;-74
2023/10/25 10:46:42;;;;;;;11.75;7.68;;;11.10;99.90;;;;;;4963364;28;20113;-74
2023/10/25 10:49:13;;;;;;;9.38;6.80;;;11.10;99.90;;;;;;4965245;28;20035;-74
2023/10/25 10:51:39;;;;;;;7.75;6.70;;;11.20;99.90;;;;;;4961666;28;20381;-75
2023/10/25 10:54:06;;;;;;;9.18;6.28;;;11.20;99.90;;;;;;4961816;28;20054;-75
2023/10/25 10:56:33;;;;;;;10.25;5.85;;;11.30;99.90;;;;;;4950696;28;20038;-74
2023/10/25 10:59:00;;;;;;;9.77;5.88;;;11.30;99.90;;;;;;4952610;28;20042;-73
2023/10/25 11:01:27;;;;;;;13.27;6.43;;;11.30;99.90;;;;;;4951197;28;20033;-74
2023/10/25 11:03:55;;;;;;;11.13;6.40;;;11.40;99.90;;;;;;4943781;28;20043;-74
2023/10/25 11:06:24;;;;;;;13.10;6.68;;;11.40;99.90;;;;;;4983937;28;20126;-74
2023/10/25 11:08:50;;;;;;;8.02;6.05;;;11.40;99.90;;;;;;4968123;28;20541;-74
2023/10/25 11:11:21;;;;;;;9.23;6.50;;;11.40;99.90;;;;;;4952057;28;20041;-74
2023/10/25 11:13:50;;;;;;;8.20;6.43;;;11.40;99.90;;;;;;4951223;28;20113;-73
2023/10/25 11:16:17;;;;;;;8.95;5.97;;;11.40;99.90;;;;;;4942496;28;20042;-74
2023/10/25 11:18:43;;;;;;;11.93;6.38;;;11.40;99.90;;;;;;4979682;28;20038;-74
2023/10/25 11:21:10;;;;;;;9.52;6.18;;;11.40;99.90;;;;;;4965400;28;20515;-74
2023/10/25 11:23:36;;;;;;;11.75;6.72;;;11.40;99.90;;;;;;4948326;28;20043;-74
2023/10/25 11:26:04;;;;;;;8.48;6.25;;;11.40;99.90;;;;;;4963966;28;20105;-74
2023/10/25 11:28:29;;;;;;;11.02;5.95;;;11.40;99.90;;;;;;4963171;28;20389;-74
2023/10/25 11:31:01;;;;;;;8.35;6.28;;;11.30;99.90;;;;;;4951593;28;20034;-74
2023/10/25 11:33:27;;;;;;;11.85;6.68;;;11.30;99.90;;;;;;4935242;28;20035;-74
2023/10/25 11:35:54;;;;;;;9.45;6.10;;;11.30;99.90;;;;;;4935650;28;20050;-74
2023/10/25 11:38:20;;;;;;;9.52;6.45;;;11.20;99.90;;;;;;4965930;28;20034;-73
2023/10/25 11:40:46;;;;;;;9.35;6.22;;;11.30;99.90;;;;;;4968006;28;20038;-74
2023/10/25 11:43:13;;;;;;;8.70;5.85;;;11.20;99.90;;;;;;4959886;28;20672;-74
2023/10/25 11:45:40;;;;;;;10.50;6.18;;;11.20;99.90;;;;;;4965479;28;20039;-73
2023/10/25 11:48:07;;;;;;;7.68;6.45;;;11.20;99.90;;;;;;4944263;28;20559;-74
2023/10/25 11:50:34;;;;;;;10.32;5.97;;;11.20;99.90;;;;;;4963468;28;20045;-74
2023/10/25 11:53:00;;;;;;;9.68;6.28;;;11.20;99.90;;;;;;4965783;28;20038;-74
2023/10/25 11:55:27;;;;;;;10.48;6.28;;;11.20;99.90;;;;;;4952819;28;20443;-74
2023/10/25 11:57:53;;;;;;;9.07;6.22;;;11.20;99.90;;;;;;4965038;28;20042;-73
2023/10/25 12:00:19;;;;;;;9.10;6.18;;;11.20;99.90;;;;;;4948867;28;20042;-74
2023/10/25 12:02:45;;;;;;;7.78;5.85;;;11.10;99.90;;;;;;4962693;28;20035;-73
2023/10/25 12:05:11;;;;;;;10.48;6.40;;;11.10;99.90;;;;;;4965238;28;20066;-74
2023/10/25 12:07:37;;;;;;;8.48;6.13;;;11.10;99.90;;;;;;4962201;28;20047;-74
2023/10/25 12:10:04;;;;;;;9.82;6.00;;;11.10;99.90;;;;;;4952647;28;20042;-74
2023/10/25 12:12:30;;;;;;;10.63;6.68;;;11.10;99.90;;;;;;4967542;28;20178;-74
2023/10/25 12:14:56;;;;;;;14.75;7.07;;;11.10;99.90;;;;;;4975899;28;20038;-74
2023/10/25 12:17:23;;;;;;;7.85;6.32;;;11.00;99.90;;;;;;4973359;28;20050;-74
2023/10/25 12:19:51;;;;;;;11.60;6.85;;;11.00;99.90;;;;;;4964536;28;20073;-74
2023/10/25 12:22:18;;;;;;;11.70;6.35;;;11.00;99.90;;;;;;4967865;28;20043;-74
2023/10/25 12:24:47;;;;;;;8.43;6.00;;;11.00;99.90;;;;;;4951901;28;20045;-74
2023/10/25 12:27:14;;;;;;;10.90;6.57;;;11.00;99.90;;;;;;4965738;28;20070;-74
2023/10/25 12:29:40;;;;;;;9.80;6.50;;;11.00;99.90;;;;;;4965194;28;20070;-74
2023/10/25 12:32:06;;;;;;;12.55;7.25;;;11.00;99.90;;;;;;4968024;28;20525;-74
2023/10/25 12:34:32;;;;;;;11.38;7.43;;;11.00;99.90;;;;;;4968044;28;20035;-75
2023/10/25 12:36:58;;;;;;;13.50;7.03;;;11.00;99.90;;;;;;4950369;28;20043;-73
2023/10/25 12:39:24;;;;;;;12.50;7.45;;;11.00;99.90;;;;;;4968443;28;20034;-74
2023/10/25 12:41:50;;;;;;;13.95;7.32;;;11.00;99.90;;;;;;4968359;28;20076;-74